sensor_id;sensor_type;location;lat;lon;timestamp;temperature;humidity
63013;DHT22;62113;45.624;11.700;2022-12-10T00:01:17;8.90;80.60
63013;DHT22;62113;45.624;11.700;2022-12-10T00:03:43;8.90;80.50
63013;DHT22;62113;45.624;11.700;2022-12-10T00:06:11;8.90;80.60
63013;DHT22;62113;45.624;11.700;2022-12-10T00:08:36;8.80;80.60
63013;DHT22;62113;45.624;11.700;2022-12-10T00:11:03;8.80;80.70
63013;DHT22;62113;45.624;11.700;2022-12-10T00:13:29;8.70;80.90
63013;DHT22;62113;45.624;11.700;2022-12-10T00:15:54;8.70;81.00
63013;DHT22;62113;45.624;11.700;2022-12-10T00:18:20;8.70;81.40
63013;DHT22;62113;45.624;11.700;2022-12-10T00:20:45;8.70;81.10
63013;DHT22;62113;45.624;11.700;2022-12-10T00:23:11;8.70;81.10
63013;DHT22;62113;45.624;11.700;2022-12-10T00:25:36;8.70;81.20
63013;DHT22;62113;45.624;11.700;2022-12-10T00:28:02;8.70;81.40
63013;DHT22;62113;45.624;11.700;2022-12-10T00:30:27;8.70;81.50
63013;DHT22;62113;45.624;11.700;2022-12-10T00:32:52;8.70;81.60
63013;DHT22;62113;45.624;11.700;2022-12-10T00:35:18;8.70;81.50
63013;DHT22;62113;45.624;11.700;2022-12-10T00:37:44;8.80;81.40
63013;DHT22;62113;45.624;11.700;2022-12-10T00:40:09;8.80;81.30
63013;DHT22;62113;45.624;11.700;2022-12-10T00:42:38;8.80;81.40
63013;DHT22;62113;45.624;11.700;2022-12-10T00:45:03;8.80;81.40
63013;DHT22;62113;45.624;11.700;2022-12-10T00:47:29;8.80;81.20
63013;DHT22;62113;45.624;11.700;2022-12-10T00:49:55;8.90;80.80
63013;DHT22;62113;45.624;11.700;2022-12-10T00:52:20;8.80;80.80
63013;DHT22;62113;45.624;11.700;2022-12-10T00:54:46;8.80;80.90
63013;DHT22;62113;45.624;11.700;2022-12-10T00:57:11;8.80;81.10
63013;DHT22;62113;45.624;11.700;2022-12-10T00:59:37;8.80;81.20
63013;DHT22;62113;45.624;11.700;2022-12-10T01:02:02;8.80;81.40
63013;DHT22;62113;45.624;11.700;2022-12-10T01:04:28;8.80;81.30
63013;DHT22;62113;45.624;11.700;2022-12-10T01:06:53;8.80;81.30
63013;DHT22;62113;45.624;11.700;2022-12-10T01:09:23;8.90;81.10
63013;DHT22;62113;45.624;11.700;2022-12-10T01:11:50;9.00;80.70
63013;DHT22;62113;45.624;11.700;2022-12-10T01:14:20;8.90;80.70
63013;DHT22;62113;45.624;11.700;2022-12-10T01:16:46;8.90;80.60
63013;DHT22;62113;45.624;11.700;2022-12-10T01:19:11;8.90;80.80
63013;DHT22;62113;45.624;11.700;2022-12-10T01:21:37;8.90;80.90
63013;DHT22;62113;45.624;11.700;2022-12-10T01:24:03;8.90;80.90
63013;DHT22;62113;45.624;11.700;2022-12-10T01:26:30;8.90;80.80
63013;DHT22;62113;45.624;11.700;2022-12-10T01:28:56;8.90;80.70
63013;DHT22;62113;45.624;11.700;2022-12-10T01:31:31;8.90;80.80
63013;DHT22;62113;45.624;11.700;2022-12-10T01:33:57;8.90;80.80
63013;DHT22;62113;45.624;11.700;2022-12-10T01:36:30;8.90;80.90
63013;DHT22;62113;45.624;11.700;2022-12-10T01:38:56;8.90;80.90
63013;DHT22;62113;45.624;11.700;2022-12-10T01:41:32;8.90;80.90
63013;DHT22;62113;45.624;11.700;2022-12-10T01:44:00;8.90;81.00
63013;DHT22;62113;45.624;11.700;2022-12-10T01:46:27;8.90;81.00
63013;DHT22;62113;45.624;11.700;2022-12-10T01:48:52;8.90;81.10
63013;DHT22;62113;45.624;11.700;2022-12-10T01:51:18;8.90;81.00
63013;DHT22;62113;45.624;11.700;2022-12-10T01:53:44;9.00;81.00
63013;DHT22;62113;45.624;11.700;2022-12-10T01:56:11;8.90;81.00
63013;DHT22;62113;45.624;11.700;2022-12-10T01:58:37;9.00;80.90
63013;DHT22;62113;45.624;11.700;2022-12-10T02:03:36;8.90;80.60
63013;DHT22;62113;45.624;11.700;2022-12-10T02:06:48;8.90;80.70
63013;DHT22;62113;45.624;11.700;2022-12-10T02:09:09;8.90;80.60
63013;DHT22;62113;45.624;11.700;2022-12-10T02:11:44;8.90;80.40
63013;DHT22;62113;45.624;11.700;2022-12-10T02:14:14;8.80;80.40
63013;DHT22;62113;45.624;11.700;2022-12-10T02:16:44;8.80;80.50
63013;DHT22;62113;45.624;11.700;2022-12-10T02:21:38;8.80;80.30
63013;DHT22;62113;45.624;11.700;2022-12-10T02:24:05;8.80;80.40
63013;DHT22;62113;45.624;11.700;2022-12-10T02:34:28;8.80;80.90
63013;DHT22;62113;45.624;11.700;2022-12-10T02:36:56;8.70;81.00
63013;DHT22;62113;45.624;11.700;2022-12-10T02:39:27;8.80;81.00
63013;DHT22;62113;45.624;11.700;2022-12-10T02:41:55;8.80;80.60
63013;DHT22;62113;45.624;11.700;2022-12-10T02:44:21;8.80;80.30
63013;DHT22;62113;45.624;11.700;2022-12-10T02:46:48;8.70;80.40
63013;DHT22;62113;45.624;11.700;2022-12-10T02:49:15;8.70;80.70
63013;DHT22;62113;45.624;11.700;2022-12-10T02:51:41;8.70;80.70
63013;DHT22;62113;45.624;11.700;2022-12-10T02:54:31;8.70;80.70
63013;DHT22;62113;45.624;11.700;2022-12-10T02:56:54;8.70;81.00
63013;DHT22;62113;45.624;11.700;2022-12-10T02:59:27;8.80;81.00
63013;DHT22;62113;45.624;11.700;2022-12-10T03:02:07;8.80;81.00
63013;DHT22;62113;45.624;11.700;2022-12-10T03:07:08;8.80;80.90
63013;DHT22;62113;45.624;11.700;2022-12-10T03:09:55;8.80;81.00
63013;DHT22;62113;45.624;11.700;2022-12-10T03:12:25;8.80;81.00
63013;DHT22;62113;45.624;11.700;2022-12-10T03:14:52;8.80;81.00
63013;DHT22;62113;45.624;11.700;2022-12-10T03:17:19;8.90;81.00
63013;DHT22;62113;45.624;11.700;2022-12-10T03:19:45;8.90;80.50
63013;DHT22;62113;45.624;11.700;2022-12-10T03:22:13;8.80;80.50
63013;DHT22;62113;45.624;11.700;2022-12-10T03:24:40;8.80;80.80
63013;DHT22;62113;45.624;11.700;2022-12-10T03:27:06;8.80;80.90
63013;DHT22;62113;45.624;11.700;2022-12-10T03:29:35;8.80;80.90
63013;DHT22;62113;45.624;11.700;2022-12-10T03:32:02;8.90;81.00
63013;DHT22;62113;45.624;11.700;2022-12-10T03:34:27;8.90;80.90
63013;DHT22;62113;45.624;11.700;2022-12-10T03:36:53;8.90;80.90
63013;DHT22;62113;45.624;11.700;2022-12-10T03:39:19;8.90;80.90
63013;DHT22;62113;45.624;11.700;2022-12-10T03:41:44;8.90;80.90
63013;DHT22;62113;45.624;11.700;2022-12-10T03:44:10;8.90;80.90
63013;DHT22;62113;45.624;11.700;2022-12-10T03:46:35;8.90;80.90
63013;DHT22;62113;45.624;11.700;2022-12-10T03:49:01;9.00;80.80
63013;DHT22;62113;45.624;11.700;2022-12-10T03:51:27;8.90;80.80
63013;DHT22;62113;45.624;11.700;2022-12-10T03:53:52;8.90;80.90
63013;DHT22;62113;45.624;11.700;2022-12-10T03:56:18;8.90;80.90
63013;DHT22;62113;45.624;11.700;2022-12-10T03:58:44;8.90;80.90
63013;DHT22;62113;45.624;11.700;2022-12-10T04:01:10;8.90;80.90
63013;DHT22;62113;45.624;11.700;2022-12-10T04:03:36;8.90;80.90
63013;DHT22;62113;45.624;11.700;2022-12-10T04:06:07;9.00;80.90
63013;DHT22;62113;45.624;11.700;2022-12-10T04:08:33;8.90;80.70
63013;DHT22;62113;45.624;11.700;2022-12-10T04:11:05;9.00;80.80
63013;DHT22;62113;45.624;11.700;2022-12-10T04:13:35;9.00;80.90
63013;DHT22;62113;45.624;11.700;2022-12-10T04:16:19;8.90;80.80
63013;DHT22;62113;45.624;11.700;2022-12-10T04:21:28;9.00;80.80
63013;DHT22;62113;45.624;11.700;2022-12-10T04:24:13;9.00;80.80
63013;DHT22;62113;45.624;11.700;2022-12-10T04:26:58;8.90;80.90
63013;DHT22;62113;45.624;11.700;2022-12-10T04:29:25;9.00;80.90
63013;DHT22;62113;45.624;11.700;2022-12-10T04:31:51;9.00;80.90
63013;DHT22;62113;45.624;11.700;2022-12-10T04:34:17;9.00;80.90
63013;DHT22;62113;45.624;11.700;2022-12-10T04:36:43;9.00;80.90
63013;DHT22;62113;45.624;11.700;2022-12-10T04:39:08;9.00;80.80
63013;DHT22;62113;45.624;11.700;2022-12-10T04:41:40;9.00;80.80
63013;DHT22;62113;45.624;11.700;2022-12-10T04:44:06;9.00;80.80
63013;DHT22;62113;45.624;11.700;2022-12-10T04:46:32;9.00;80.90
63013;DHT22;62113;45.624;11.700;2022-12-10T04:48:57;9.00;80.80
63013;DHT22;62113;45.624;11.700;2022-12-10T04:51:23;9.00;80.80
63013;DHT22;62113;45.624;11.700;2022-12-10T04:53:48;9.00;80.90
63013;DHT22;62113;45.624;11.700;2022-12-10T04:56:14;9.00;80.80
63013;DHT22;62113;45.624;11.700;2022-12-10T04:58:39;9.00;80.70
63013;DHT22;62113;45.624;11.700;2022-12-10T05:01:05;9.00;80.60
63013;DHT22;62113;45.624;11.700;2022-12-10T05:03:31;9.00;80.70
63013;DHT22;62113;45.624;11.700;2022-12-10T05:06:08;9.00;80.70
63013;DHT22;62113;45.624;11.700;2022-12-10T05:08:34;9.00;80.70
63013;DHT22;62113;45.624;11.700;2022-12-10T05:11:03;8.90;80.70
63013;DHT22;62113;45.624;11.700;2022-12-10T05:13:29;9.00;80.70
63013;DHT22;62113;45.624;11.700;2022-12-10T05:15:55;8.90;80.70
63013;DHT22;62113;45.624;11.700;2022-12-10T05:18:21;8.90;80.80
63013;DHT22;62113;45.624;11.700;2022-12-10T05:20:46;8.90;80.80
63013;DHT22;62113;45.624;11.700;2022-12-10T05:23:12;8.90;80.90
63013;DHT22;62113;45.624;11.700;2022-12-10T05:28:24;8.90;80.60
63013;DHT22;62113;45.624;11.700;2022-12-10T05:30:50;8.90;80.70
63013;DHT22;62113;45.624;11.700;2022-12-10T05:33:15;8.90;80.50
63013;DHT22;62113;45.624;11.700;2022-12-10T05:35:41;8.90;80.50
63013;DHT22;62113;45.624;11.700;2022-12-10T05:38:06;8.90;80.70
63013;DHT22;62113;45.624;11.700;2022-12-10T05:40:35;8.90;80.70
63013;DHT22;62113;45.624;11.700;2022-12-10T05:43:00;9.00;80.70
63013;DHT22;62113;45.624;11.700;2022-12-10T05:45:26;8.90;80.80
63013;DHT22;62113;45.624;11.700;2022-12-10T05:47:51;8.90;80.90
63013;DHT22;62113;45.624;11.700;2022-12-10T05:50:17;9.00;80.90
63013;DHT22;62113;45.624;11.700;2022-12-10T05:52:42;9.00;81.00
63013;DHT22;62113;45.624;11.700;2022-12-10T05:55:08;9.00;80.80
63013;DHT22;62113;45.624;11.700;2022-12-10T05:57:35;9.00;80.80
63013;DHT22;62113;45.624;11.700;2022-12-10T06:00:01;9.00;80.90
63013;DHT22;62113;45.624;11.700;2022-12-10T06:02:27;9.00;81.00
63013;DHT22;62113;45.624;11.700;2022-12-10T06:04:52;9.00;81.00
63013;DHT22;62113;45.624;11.700;2022-12-10T06:07:17;9.00;81.00
63013;DHT22;62113;45.624;11.700;2022-12-10T06:09:43;9.00;81.10
63013;DHT22;62113;45.624;11.700;2022-12-10T06:12:08;9.00;81.00
63013;DHT22;62113;45.624;11.700;2022-12-10T06:14:34;9.00;81.10
63013;DHT22;62113;45.624;11.700;2022-12-10T06:16:59;9.00;81.10
63013;DHT22;62113;45.624;11.700;2022-12-10T06:19:25;9.10;81.10
63013;DHT22;62113;45.624;11.700;2022-12-10T06:21:50;9.00;81.10
63013;DHT22;62113;45.624;11.700;2022-12-10T06:24:16;9.10;81.10
63013;DHT22;62113;45.624;11.700;2022-12-10T06:26:41;9.10;81.20
63013;DHT22;62113;45.624;11.700;2022-12-10T06:29:08;9.10;81.30
63013;DHT22;62113;45.624;11.700;2022-12-10T06:31:33;9.00;81.30
63013;DHT22;62113;45.624;11.700;2022-12-10T06:33:59;9.10;81.20
63013;DHT22;62113;45.624;11.700;2022-12-10T06:36:25;9.10;81.30
63013;DHT22;62113;45.624;11.700;2022-12-10T06:38:50;9.10;81.30
63013;DHT22;62113;45.624;11.700;2022-12-10T06:41:17;9.20;81.10
63013;DHT22;62113;45.624;11.700;2022-12-10T06:43:42;9.20;81.10
63013;DHT22;62113;45.624;11.700;2022-12-10T06:46:08;9.10;81.20
63013;DHT22;62113;45.624;11.700;2022-12-10T06:48:35;9.10;81.20
63013;DHT22;62113;45.624;11.700;2022-12-10T06:51:01;9.10;81.30
63013;DHT22;62113;45.624;11.700;2022-12-10T06:53:26;9.20;81.40
63013;DHT22;62113;45.624;11.700;2022-12-10T06:55:52;9.20;81.30
63013;DHT22;62113;45.624;11.700;2022-12-10T06:58:17;9.20;81.30
63013;DHT22;62113;45.624;11.700;2022-12-10T07:00:43;9.20;81.30
63013;DHT22;62113;45.624;11.700;2022-12-10T07:03:08;9.20;81.30
63013;DHT22;62113;45.624;11.700;2022-12-10T07:05:34;9.20;81.30
63013;DHT22;62113;45.624;11.700;2022-12-10T07:07:59;9.20;81.40
63013;DHT22;62113;45.624;11.700;2022-12-10T07:10:25;9.20;81.40
63013;DHT22;62113;45.624;11.700;2022-12-10T07:12:50;9.20;81.30
63013;DHT22;62113;45.624;11.700;2022-12-10T07:15:16;9.20;81.40
63013;DHT22;62113;45.624;11.700;2022-12-10T07:17:41;9.20;81.50
63013;DHT22;62113;45.624;11.700;2022-12-10T07:20:07;9.30;81.50
63013;DHT22;62113;45.624;11.700;2022-12-10T07:22:33;9.30;81.50
63013;DHT22;62113;45.624;11.700;2022-12-10T07:24:58;9.30;81.40
63013;DHT22;62113;45.624;11.700;2022-12-10T07:27:24;9.30;81.50
63013;DHT22;62113;45.624;11.700;2022-12-10T07:29:50;9.30;81.50
63013;DHT22;62113;45.624;11.700;2022-12-10T07:32:15;9.30;81.40
63013;DHT22;62113;45.624;11.700;2022-12-10T07:34:41;9.30;81.50
63013;DHT22;62113;45.624;11.700;2022-12-10T07:37:06;9.30;81.50
63013;DHT22;62113;45.624;11.700;2022-12-10T07:39:32;9.30;81.50
63013;DHT22;62113;45.624;11.700;2022-12-10T07:41:57;9.30;81.50
63013;DHT22;62113;45.624;11.700;2022-12-10T07:44:24;9.30;81.40
63013;DHT22;62113;45.624;11.700;2022-12-10T07:46:50;9.40;81.40
63013;DHT22;62113;45.624;11.700;2022-12-10T07:49:16;9.30;81.30
63013;DHT22;62113;45.624;11.700;2022-12-10T07:51:45;9.40;81.30
63013;DHT22;62113;45.624;11.700;2022-12-10T07:54:11;9.40;81.30
63013;DHT22;62113;45.624;11.700;2022-12-10T07:56:36;9.40;81.30
63013;DHT22;62113;45.624;11.700;2022-12-10T07:59:02;9.40;81.20
63013;DHT22;62113;45.624;11.700;2022-12-10T08:01:27;9.40;81.20
63013;DHT22;62113;45.624;11.700;2022-12-10T08:03:53;9.40;81.10
63013;DHT22;62113;45.624;11.700;2022-12-10T08:06:21;9.50;81.20
63013;DHT22;62113;45.624;11.700;2022-12-10T08:08:47;9.40;81.20
63013;DHT22;62113;45.624;11.700;2022-12-10T08:11:13;9.50;81.10
63013;DHT22;62113;45.624;11.700;2022-12-10T08:13:40;9.50;81.10
63013;DHT22;62113;45.624;11.700;2022-12-10T08:16:06;9.50;81.10
63013;DHT22;62113;45.624;11.700;2022-12-10T08:18:32;9.50;81.10
63013;DHT22;62113;45.624;11.700;2022-12-10T08:20:58;9.50;81.10
63013;DHT22;62113;45.624;11.700;2022-12-10T08:23:24;9.50;81.10
63013;DHT22;62113;45.624;11.700;2022-12-10T08:25:49;9.50;80.90
63013;DHT22;62113;45.624;11.700;2022-12-10T08:28:15;9.50;80.90
63013;DHT22;62113;45.624;11.700;2022-12-10T08:30:44;9.50;81.10
63013;DHT22;62113;45.624;11.700;2022-12-10T08:33:10;9.50;81.20
63013;DHT22;62113;45.624;11.700;2022-12-10T08:35:36;9.50;81.30
63013;DHT22;62113;45.624;11.700;2022-12-10T08:38:01;9.50;81.20
63013;DHT22;62113;45.624;11.700;2022-12-10T08:40:27;9.60;81.30
63013;DHT22;62113;45.624;11.700;2022-12-10T08:42:52;9.50;81.30
63013;DHT22;62113;45.624;11.700;2022-12-10T08:45:18;9.60;81.30
63013;DHT22;62113;45.624;11.700;2022-12-10T08:47:43;9.60;81.40
63013;DHT22;62113;45.624;11.700;2022-12-10T08:50:09;9.60;81.30
63013;DHT22;62113;45.624;11.700;2022-12-10T08:52:34;9.60;81.40
63013;DHT22;62113;45.624;11.700;2022-12-10T08:55:00;9.70;81.50
63013;DHT22;62113;45.624;11.700;2022-12-10T08:57:25;9.60;81.50
63013;DHT22;62113;45.624;11.700;2022-12-10T08:59:51;9.70;81.60
63013;DHT22;62113;45.624;11.700;2022-12-10T09:02:16;9.70;81.60
63013;DHT22;62113;45.624;11.700;2022-12-10T09:04:42;9.70;81.60
63013;DHT22;62113;45.624;11.700;2022-12-10T09:07:07;9.80;81.50
63013;DHT22;62113;45.624;11.700;2022-12-10T09:09:33;9.80;81.50
63013;DHT22;62113;45.624;11.700;2022-12-10T09:11:59;9.90;81.50
63013;DHT22;62113;45.624;11.700;2022-12-10T09:14:24;9.90;81.60
63013;DHT22;62113;45.624;11.700;2022-12-10T09:16:50;10.00;81.60
63013;DHT22;62113;45.624;11.700;2022-12-10T09:19:15;10.10;81.60
63013;DHT22;62113;45.624;11.700;2022-12-10T09:21:41;10.10;81.50
63013;DHT22;62113;45.624;11.700;2022-12-10T09:24:06;10.20;81.50
63013;DHT22;62113;45.624;11.700;2022-12-10T09:26:33;10.20;81.40
63013;DHT22;62113;45.624;11.700;2022-12-10T09:28:58;10.20;81.20
63013;DHT22;62113;45.624;11.700;2022-12-10T09:31:25;10.30;81.20
63013;DHT22;62113;45.624;11.700;2022-12-10T09:33:53;10.40;81.00
63013;DHT22;62113;45.624;11.700;2022-12-10T09:36:19;10.40;80.80
63013;DHT22;62113;45.624;11.700;2022-12-10T09:38:45;10.40;80.80
63013;DHT22;62113;45.624;11.700;2022-12-10T09:51:22;10.60;80.80
63013;DHT22;62113;45.624;11.700;2022-12-10T09:53:48;10.60;80.80
63013;DHT22;62113;45.624;11.700;2022-12-10T09:56:19;10.70;80.80
63013;DHT22;62113;45.624;11.700;2022-12-10T09:58:46;10.80;80.90
63013;DHT22;62113;45.624;11.700;2022-12-10T10:01:12;10.80;80.90
63013;DHT22;62113;45.624;11.700;2022-12-10T10:03:40;11.00;80.70
63013;DHT22;62113;45.624;11.700;2022-12-10T10:06:08;11.00;80.60
63013;DHT22;62113;45.624;11.700;2022-12-10T10:08:36;11.20;80.10
63013;DHT22;62113;45.624;11.700;2022-12-10T10:11:03;11.30;79.40
63013;DHT22;62113;45.624;11.700;2022-12-10T10:13:43;11.40;78.80
63013;DHT22;62113;45.624;11.700;2022-12-10T10:16:18;11.50;78.80
63013;DHT22;62113;45.624;11.700;2022-12-10T10:18:53;11.60;78.80
63013;DHT22;62113;45.624;11.700;2022-12-10T10:21:24;11.70;78.90
63013;DHT22;62113;45.624;11.700;2022-12-10T10:23:50;11.70;78.80
63013;DHT22;62113;45.624;11.700;2022-12-10T10:26:16;11.70;78.50
63013;DHT22;62113;45.624;11.700;2022-12-10T10:28:42;11.80;78.50
63013;DHT22;62113;45.624;11.700;2022-12-10T10:31:18;11.80;78.50
63013;DHT22;62113;45.624;11.700;2022-12-10T10:33:52;11.80;78.30
63013;DHT22;62113;45.624;11.700;2022-12-10T10:36:28;11.90;78.40
63013;DHT22;62113;45.624;11.700;2022-12-10T10:38:54;11.90;78.50
63013;DHT22;62113;45.624;11.700;2022-12-10T10:41:20;12.00;77.70
63013;DHT22;62113;45.624;11.700;2022-12-10T10:43:45;12.10;77.70
63013;DHT22;62113;45.624;11.700;2022-12-10T10:46:16;12.20;77.90
63013;DHT22;62113;45.624;11.700;2022-12-10T10:48:43;12.20;77.60
63013;DHT22;62113;45.624;11.700;2022-12-10T10:56:19;12.20;77.30
63013;DHT22;62113;45.624;11.700;2022-12-10T11:01:24;12.20;77.20
63013;DHT22;62113;45.624;11.700;2022-12-10T11:03:54;12.20;77.10
63013;DHT22;62113;45.624;11.700;2022-12-10T11:06:20;12.30;76.90
63013;DHT22;62113;45.624;11.700;2022-12-10T11:08:46;12.30;76.80
63013;DHT22;62113;45.624;11.700;2022-12-10T11:11:14;12.40;76.80
63013;DHT22;62113;45.624;11.700;2022-12-10T11:13:42;12.40;76.60
63013;DHT22;62113;45.624;11.700;2022-12-10T11:16:18;12.50;76.60
63013;DHT22;62113;45.624;11.700;2022-12-10T11:19:00;12.70;76.40
63013;DHT22;62113;45.624;11.700;2022-12-10T11:21:30;12.80;76.30
63013;DHT22;62113;45.624;11.700;2022-12-10T11:23:56;13.00;75.80
63013;DHT22;62113;45.624;11.700;2022-12-10T11:31:29;13.40;75.20
63013;DHT22;62113;45.624;11.700;2022-12-10T11:36:31;13.60;74.70
63013;DHT22;62113;45.624;11.700;2022-12-10T11:41:34;13.60;74.00
63013;DHT22;62113;45.624;11.700;2022-12-10T11:46:53;13.50;74.00
63013;DHT22;62113;45.624;11.700;2022-12-10T11:49:24;13.50;74.20
63013;DHT22;62113;45.624;11.700;2022-12-10T12:02:20;13.30;73.80
63013;DHT22;62113;45.624;11.700;2022-12-10T12:05:22;13.30;73.90
63013;DHT22;62113;45.624;11.700;2022-12-10T12:17:47;13.00;73.40
63013;DHT22;62113;45.624;11.700;2022-12-10T12:20:18;12.90;73.40
63013;DHT22;62113;45.624;11.700;2022-12-10T12:22:50;12.90;73.50
63013;DHT22;62113;45.624;11.700;2022-12-10T12:25:22;12.80;73.40
63013;DHT22;62113;45.624;11.700;2022-12-10T12:27:50;12.80;73.60
63013;DHT22;62113;45.624;11.700;2022-12-10T12:30:18;12.80;73.60
63013;DHT22;62113;45.624;11.700;2022-12-10T12:46:01;12.70;74.90
63013;DHT22;62113;45.624;11.700;2022-12-10T12:50:54;12.70;75.20
63013;DHT22;62113;45.624;11.700;2022-12-10T12:53:23;12.60;75.20
63013;DHT22;62113;45.624;11.700;2022-12-10T12:58:20;12.60;75.20
63013;DHT22;62113;45.624;11.700;2022-12-10T13:00:49;12.60;75.30
63013;DHT22;62113;45.624;11.700;2022-12-10T13:05:47;12.50;75.60
63013;DHT22;62113;45.624;11.700;2022-12-10T13:10:51;12.50;75.60
63013;DHT22;62113;45.624;11.700;2022-12-10T13:13:22;12.40;75.70
63013;DHT22;62113;45.624;11.700;2022-12-10T13:15:48;12.40;75.70
63013;DHT22;62113;45.624;11.700;2022-12-10T13:33:44;12.30;76.30
63013;DHT22;62113;45.624;11.700;2022-12-10T13:36:11;12.20;76.50
63013;DHT22;62113;45.624;11.700;2022-12-10T13:38:40;12.20;76.60
63013;DHT22;62113;45.624;11.700;2022-12-10T13:41:06;12.20;76.70
63013;DHT22;62113;45.624;11.700;2022-12-10T13:43:58;12.20;76.40
63013;DHT22;62113;45.624;11.700;2022-12-10T13:49:18;12.20;76.90
63013;DHT22;62113;45.624;11.700;2022-12-10T13:56:48;12.10;77.40
63013;DHT22;62113;45.624;11.700;2022-12-10T13:59:33;12.00;77.50
63013;DHT22;62113;45.624;11.700;2022-12-10T14:07:31;12.00;77.80
63013;DHT22;62113;45.624;11.700;2022-12-10T14:09:57;12.00;77.80
63013;DHT22;62113;45.624;11.700;2022-12-10T14:12:31;11.90;78.10
63013;DHT22;62113;45.624;11.700;2022-12-10T14:15:01;11.90;78.10
63013;DHT22;62113;45.624;11.700;2022-12-10T14:17:32;11.90;78.30
63013;DHT22;62113;45.624;11.700;2022-12-10T14:19:58;11.90;78.40
63013;DHT22;62113;45.624;11.700;2022-12-10T14:22:30;11.90;78.40
63013;DHT22;62113;45.624;11.700;2022-12-10T14:25:00;11.80;78.40
63013;DHT22;62113;45.624;11.700;2022-12-10T14:27:26;11.80;78.60
63013;DHT22;62113;45.624;11.700;2022-12-10T14:29:57;11.80;78.70
63013;DHT22;62113;45.624;11.700;2022-12-10T14:32:35;11.80;78.90
63013;DHT22;62113;45.624;11.700;2022-12-10T14:35:02;11.80;78.90
63013;DHT22;62113;45.624;11.700;2022-12-10T14:37:33;11.70;79.00
63013;DHT22;62113;45.624;11.700;2022-12-10T14:39:59;11.70;79.00
63013;DHT22;62113;45.624;11.700;2022-12-10T14:42:25;11.70;79.00
63013;DHT22;62113;45.624;11.700;2022-12-10T14:44:54;11.70;79.00
63013;DHT22;62113;45.624;11.700;2022-12-10T14:47:21;11.70;79.10
63013;DHT22;62113;45.624;11.700;2022-12-10T14:49:48;11.70;79.00
63013;DHT22;62113;45.624;11.700;2022-12-10T14:52:14;11.70;79.00
63013;DHT22;62113;45.624;11.700;2022-12-10T14:54:41;11.70;79.00
63013;DHT22;62113;45.624;11.700;2022-12-10T14:57:07;11.70;79.00
63013;DHT22;62113;45.624;11.700;2022-12-10T14:59:39;11.70;78.90
63013;DHT22;62113;45.624;11.700;2022-12-10T15:02:12;11.60;78.90
63013;DHT22;62113;45.624;11.700;2022-12-10T15:04:40;11.60;79.00
63013;DHT22;62113;45.624;11.700;2022-12-10T15:07:08;11.60;79.00
63013;DHT22;62113;45.624;11.700;2022-12-10T15:09:36;11.50;78.80
63013;DHT22;62113;45.624;11.700;2022-12-10T15:12:01;11.60;78.70
63013;DHT22;62113;45.624;11.700;2022-12-10T15:14:28;11.60;78.70
63013;DHT22;62113;45.624;11.700;2022-12-10T15:16:54;11.50;78.70
63013;DHT22;62113;45.624;11.700;2022-12-10T15:19:22;11.50;78.80
63013;DHT22;62113;45.624;11.700;2022-12-10T15:21:49;11.50;79.00
63013;DHT22;62113;45.624;11.700;2022-12-10T15:24:24;11.50;78.90
63013;DHT22;62113;45.624;11.700;2022-12-10T15:26:50;11.50;79.10
63013;DHT22;62113;45.624;11.700;2022-12-10T15:31:48;11.40;79.30
63013;DHT22;62113;45.624;11.700;2022-12-10T15:34:13;11.40;79.30
63013;DHT22;62113;45.624;11.700;2022-12-10T15:36:40;11.40;79.30
63013;DHT22;62113;45.624;11.700;2022-12-10T15:39:15;11.40;79.60
63013;DHT22;62113;45.624;11.700;2022-12-10T15:41:45;11.40;79.70
63013;DHT22;62113;45.624;11.700;2022-12-10T15:49:36;11.30;79.70
63013;DHT22;62113;45.624;11.700;2022-12-10T15:52:02;11.30;79.70
63013;DHT22;62113;45.624;11.700;2022-12-10T15:54:35;11.30;80.00
63013;DHT22;62113;45.624;11.700;2022-12-10T15:57:11;11.30;80.10
63013;DHT22;62113;45.624;11.700;2022-12-10T15:59:37;11.30;79.80
63013;DHT22;62113;45.624;11.700;2022-12-10T16:02:03;11.30;80.10
63013;DHT22;62113;45.624;11.700;2022-12-10T16:04:30;11.30;80.10
63013;DHT22;62113;45.624;11.700;2022-12-10T16:06:55;11.30;80.20
63013;DHT22;62113;45.624;11.700;2022-12-10T16:09:21;11.30;80.30
63013;DHT22;62113;45.624;11.700;2022-12-10T16:11:46;11.30;80.30
63013;DHT22;62113;45.624;11.700;2022-12-10T16:14:12;11.30;80.40
63013;DHT22;62113;45.624;11.700;2022-12-10T16:16:38;11.30;80.50
63013;DHT22;62113;45.624;11.700;2022-12-10T16:19:08;11.30;80.40
63013;DHT22;62113;45.624;11.700;2022-12-10T16:21:34;11.30;80.50
63013;DHT22;62113;45.624;11.700;2022-12-10T16:23:59;11.20;80.50
63013;DHT22;62113;45.624;11.700;2022-12-10T16:26:25;11.20;80.60
63013;DHT22;62113;45.624;11.700;2022-12-10T16:28:51;11.20;80.50
63013;DHT22;62113;45.624;11.700;2022-12-10T16:31:17;11.20;80.60
63013;DHT22;62113;45.624;11.700;2022-12-10T16:33:43;11.20;80.70
63013;DHT22;62113;45.624;11.700;2022-12-10T16:36:09;11.20;80.70
63013;DHT22;62113;45.624;11.700;2022-12-10T16:38:37;11.20;80.80
63013;DHT22;62113;45.624;11.700;2022-12-10T16:41:02;11.20;80.80
63013;DHT22;62113;45.624;11.700;2022-12-10T16:43:29;11.20;80.90
63013;DHT22;62113;45.624;11.700;2022-12-10T16:45:55;11.20;80.80
63013;DHT22;62113;45.624;11.700;2022-12-10T16:48:21;11.20;80.90
63013;DHT22;62113;45.624;11.700;2022-12-10T16:50:47;11.20;80.90
63013;DHT22;62113;45.624;11.700;2022-12-10T16:53:15;11.20;80.40
63013;DHT22;62113;45.624;11.700;2022-12-10T16:55:41;11.20;80.60
63013;DHT22;62113;45.624;11.700;2022-12-10T16:58:13;11.20;80.60
63013;DHT22;62113;45.624;11.700;2022-12-10T17:00:42;11.20;80.60
63013;DHT22;62113;45.624;11.700;2022-12-10T17:03:10;11.20;80.60
63013;DHT22;62113;45.624;11.700;2022-12-10T17:05:41;11.20;80.30
63013;DHT22;62113;45.624;11.700;2022-12-10T17:08:07;11.20;80.20
63013;DHT22;62113;45.624;11.700;2022-12-10T17:10:33;11.10;80.20
63013;DHT22;62113;45.624;11.700;2022-12-10T17:13:17;11.10;80.20
63013;DHT22;62113;45.624;11.700;2022-12-10T17:15:45;11.10;80.20
63013;DHT22;62113;45.624;11.700;2022-12-10T17:18:15;11.10;80.20
63013;DHT22;62113;45.624;11.700;2022-12-10T17:20:41;11.10;80.20
63013;DHT22;62113;45.624;11.700;2022-12-10T17:23:06;11.10;80.20
63013;DHT22;62113;45.624;11.700;2022-12-10T17:25:32;11.10;80.20
63013;DHT22;62113;45.624;11.700;2022-12-10T17:27:57;11.10;80.20
63013;DHT22;62113;45.624;11.700;2022-12-10T17:30:23;11.10;80.30
63013;DHT22;62113;45.624;11.700;2022-12-10T17:32:48;11.10;80.30
63013;DHT22;62113;45.624;11.700;2022-12-10T17:35:14;11.10;80.30
63013;DHT22;62113;45.624;11.700;2022-12-10T17:37:39;11.10;80.30
63013;DHT22;62113;45.624;11.700;2022-12-10T17:40:10;11.10;80.20